createdAt,value
2019-03-22T00:00:23.265Z,99.90
2019-03-22T00:02:54.193Z,99.90
2019-03-22T00:05:23.492Z,99.90
2019-03-22T00:07:54.460Z,99.90
2019-03-22T00:10:23.833Z,99.90
2019-03-22T00:12:53.138Z,99.90
2019-03-22T00:15:22.441Z,99.90
2019-03-22T00:17:51.746Z,99.90
2019-03-22T00:20:21.048Z,99.90
2019-03-22T00:22:50.352Z,99.90
2019-03-22T00:25:19.672Z,99.90
2019-03-22T00:27:48.972Z,99.90
2019-03-22T00:30:18.277Z,99.90
2019-03-22T00:32:48.049Z,99.90
2019-03-22T00:35:17.356Z,99.90
2019-03-22T00:37:46.664Z,99.90
2019-03-22T00:40:16.032Z,99.90
2019-03-22T00:42:45.367Z,99.90
2019-03-22T00:45:14.972Z,99.90
2019-03-22T00:47:44.948Z,99.90
2019-03-22T00:50:14.592Z,99.90
2019-03-22T00:52:43.897Z,99.90
2019-03-22T00:55:14.308Z,99.90
2019-03-22T00:57:43.607Z,99.90
2019-03-22T01:00:14.447Z,99.90
2019-03-22T01:02:43.748Z,99.90
2019-03-22T01:05:13.596Z,99.90
2019-03-22T01:07:42.924Z,99.90
2019-03-22T01:10:13.825Z,99.90
2019-03-22T01:12:43.191Z,99.90
2019-03-22T01:15:14.041Z,99.90
2019-03-22T01:17:43.339Z,99.90
2019-03-22T01:20:13.140Z,99.90
2019-03-22T01:22:43.407Z,99.90
2019-03-22T01:25:12.951Z,99.90
2019-03-22T01:27:42.249Z,99.90
2019-03-22T01:30:18.240Z,99.90
2019-03-22T01:32:47.553Z,99.90
2019-03-22T01:35:16.861Z,99.90
2019-03-22T01:37:46.161Z,99.90
2019-03-22T01:40:16.000Z,99.90
2019-03-22T01:42:45.337Z,99.90
2019-03-22T01:45:16.286Z,99.90
2019-03-22T01:47:45.591Z,99.90
2019-03-22T01:50:17.559Z,99.90
2019-03-22T01:52:46.851Z,99.90
2019-03-22T01:55:16.173Z,99.90
2019-03-22T01:57:52.946Z,99.90
2019-03-22T02:00:18.214Z,99.90
2019-03-22T02:02:47.585Z,99.90
2019-03-22T02:05:16.888Z,99.90
2019-03-22T02:07:46.200Z,99.90
2019-03-22T02:10:17.442Z,99.90
2019-03-22T02:12:46.752Z,99.90
2019-03-22T02:15:16.701Z,99.90
2019-03-22T02:17:46.024Z,99.90
2019-03-22T02:20:17.567Z,99.90
2019-03-22T02:22:47.516Z,99.90
2019-03-22T02:25:16.889Z,99.90
2019-03-22T02:27:46.191Z,99.90
2019-03-22T02:30:18.868Z,99.90
2019-03-22T02:32:48.261Z,99.90
2019-03-22T02:35:28.370Z,99.90
2019-03-22T02:37:48.577Z,99.90
2019-03-22T02:40:17.922Z,99.90
2019-03-22T02:42:47.235Z,99.90
2019-03-22T02:45:16.923Z,99.90
2019-03-22T02:47:46.491Z,99.90
2019-03-22T02:50:20.045Z,99.90
2019-03-22T02:52:46.788Z,99.90
2019-03-22T02:55:16.086Z,99.90
2019-03-22T02:57:46.830Z,99.90
2019-03-22T03:00:17.287Z,99.90
2019-03-22T03:02:46.802Z,99.90
2019-03-22T03:05:16.360Z,99.90
2019-03-22T03:07:45.717Z,99.90
2019-03-22T03:10:16.050Z,99.90
2019-03-22T03:12:46.673Z,99.90
2019-03-22T03:15:18.822Z,99.90
2019-03-22T03:17:48.784Z,99.90
2019-03-22T03:20:19.649Z,99.90
2019-03-22T03:23:08.326Z,99.90
2019-03-22T03:25:37.703Z,99.90
2019-03-22T03:28:07.009Z,99.90
2019-03-22T03:30:36.340Z,99.90
2019-03-22T03:33:05.726Z,99.90
2019-03-22T03:35:35.657Z,99.90
2019-03-22T03:38:04.957Z,99.90
2019-03-22T03:40:34.266Z,99.90
2019-03-22T03:43:03.573Z,99.90
2019-03-22T03:45:33.913Z,99.90
2019-03-22T03:48:05.061Z,99.90
2019-03-22T03:50:34.709Z,99.90
2019-03-22T03:53:04.540Z,99.90
2019-03-22T03:55:33.847Z,99.90
2019-03-22T03:58:03.398Z,99.90
2019-03-22T04:00:32.866Z,99.90
2019-03-22T04:03:02.340Z,99.90
2019-03-22T04:05:31.642Z,99.90
2019-03-22T04:08:00.944Z,99.90
2019-03-22T04:10:30.731Z,99.90
2019-03-22T04:13:00.046Z,99.90
2019-03-22T04:15:29.347Z,99.90
2019-03-22T04:17:58.652Z,99.90
2019-03-22T04:20:27.957Z,99.90
2019-03-22T04:22:57.260Z,99.90
2019-03-22T04:25:26.586Z,99.90
2019-03-22T04:27:56.043Z,99.90
2019-03-22T04:30:26.615Z,99.90
2019-03-22T04:32:56.048Z,99.90
2019-03-22T04:35:25.351Z,99.90
2019-03-22T04:37:54.657Z,99.90
2019-03-22T04:40:30.496Z,99.90
2019-03-22T04:42:59.795Z,99.90
2019-03-22T04:45:32.488Z,99.90
2019-03-22T04:48:13.796Z,99.90
2019-03-22T04:50:54.934Z,99.90
2019-03-22T04:53:28.517Z,99.90
2019-03-22T04:56:00.984Z,99.90
2019-03-22T04:58:31.896Z,99.90
2019-03-22T05:01:03.581Z,99.90
2019-03-22T05:03:34.248Z,99.90
2019-03-22T05:06:05.903Z,99.90
2019-03-22T05:08:38.624Z,99.90
2019-03-22T05:11:11.291Z,99.90
2019-03-22T05:13:42.822Z,99.90
2019-03-22T05:16:15.123Z,99.90
2019-03-22T05:18:47.745Z,99.90
2019-03-22T05:21:18.101Z,99.90
2019-03-22T05:23:50.812Z,99.90
2019-03-22T05:26:20.964Z,99.90
2019-03-22T05:28:51.312Z,99.90
2019-03-22T05:31:29.914Z,99.90
2019-03-22T05:33:59.207Z,99.90
2019-03-22T05:36:28.512Z,99.90
2019-03-22T05:38:57.811Z,99.90
2019-03-22T05:41:28.184Z,99.90
2019-03-22T05:43:57.501Z,99.90
2019-03-22T05:46:26.811Z,99.90
2019-03-22T05:48:56.114Z,99.90
2019-03-22T05:51:25.419Z,99.90
2019-03-22T05:53:54.723Z,99.90
2019-03-22T05:56:24.022Z,99.90
2019-03-22T05:58:53.325Z,99.90
2019-03-22T06:01:22.637Z,99.90
2019-03-22T06:03:51.940Z,99.90
2019-03-22T06:06:21.243Z,99.90
2019-03-22T06:08:50.558Z,99.90
2019-03-22T06:11:21.757Z,99.90
2019-03-22T06:13:51.060Z,99.90
2019-03-22T06:16:20.361Z,99.90
2019-03-22T06:18:50.532Z,99.90
2019-03-22T06:21:20.052Z,99.90
2019-03-22T06:23:49.355Z,99.90
2019-03-22T06:26:18.662Z,99.90
2019-03-22T06:28:47.972Z,99.90
2019-03-22T06:31:36.625Z,99.90
2019-03-22T06:34:05.933Z,99.90
2019-03-22T06:36:35.236Z,99.90
2019-03-22T06:39:07.143Z,99.90
2019-03-22T06:41:57.703Z,99.90
2019-03-22T06:44:27.014Z,99.90
2019-03-22T06:46:56.312Z,99.90
2019-03-22T06:49:25.615Z,99.90
2019-03-22T06:51:54.985Z,99.90
2019-03-22T06:54:31.550Z,99.90
2019-03-22T06:56:55.288Z,99.90
2019-03-22T06:59:25.156Z,99.90
2019-03-22T07:01:54.458Z,99.90
2019-03-22T07:04:23.766Z,99.90
2019-03-22T07:06:53.064Z,99.90
2019-03-22T07:09:22.364Z,99.90
2019-03-22T07:11:51.966Z,99.90
2019-03-22T07:14:21.269Z,99.90
2019-03-22T07:16:50.573Z,99.90
2019-03-22T07:19:19.879Z,99.90
2019-03-22T07:21:49.179Z,99.90
2019-03-22T07:24:18.615Z,99.90
2019-03-22T07:26:47.917Z,99.90
2019-03-22T07:29:17.219Z,99.90
2019-03-22T07:31:46.524Z,99.90
2019-03-22T07:34:15.829Z,99.90
2019-03-22T07:36:58.495Z,99.90
2019-03-22T07:39:27.800Z,99.90
2019-03-22T07:41:58.176Z,99.90
2019-03-22T07:44:27.500Z,99.90
2019-03-22T07:46:56.856Z,99.90
2019-03-22T07:49:26.219Z,99.90
2019-03-22T07:51:55.516Z,99.90
2019-03-22T07:54:24.828Z,99.90
2019-03-22T07:56:54.123Z,99.90
2019-03-22T07:59:23.426Z,99.30
2019-03-22T08:01:52.745Z,99.10
2019-03-22T08:04:22.043Z,98.40
2019-03-22T08:06:51.348Z,97.80
2019-03-22T08:09:20.693Z,97.10
2019-03-22T08:11:49.992Z,97.30
2019-03-22T08:14:20.689Z,97.10
2019-03-22T08:16:49.991Z,97.10
2019-03-22T08:19:19.289Z,96.40
2019-03-22T08:21:48.596Z,97.30
2019-03-22T08:24:17.900Z,96.50
2019-03-22T08:26:47.417Z,95.90
2019-03-22T08:29:16.722Z,94.80
2019-03-22T08:31:46.118Z,94.50
2019-03-22T08:34:15.421Z,93.40
2019-03-22T08:36:44.736Z,92.90
2019-03-22T08:39:14.066Z,92.60
2019-03-22T08:41:43.370Z,92.80
2019-03-22T08:44:12.698Z,92.20
2019-03-22T08:46:44.795Z,91.60
2019-03-22T08:49:13.112Z,91.60
2019-03-22T08:51:43.431Z,90.90
2019-03-22T08:54:12.825Z,90.30
2019-03-22T08:56:42.224Z,90.90
2019-03-22T08:59:13.518Z,89.90
2019-03-22T09:01:45.950Z,88.40
2019-03-22T09:04:15.390Z,87.40
2019-03-22T09:06:44.741Z,85.90
2019-03-22T09:09:14.232Z,81.90
2019-03-22T09:11:43.608Z,80.00
2019-03-22T09:14:12.995Z,79.90
2019-03-22T09:16:43.292Z,81.50
2019-03-22T09:19:12.592Z,83.90
2019-03-22T09:21:41.915Z,79.10
2019-03-22T09:24:11.221Z,76.50
2019-03-22T09:26:47.720Z,76.60
2019-03-22T09:29:14.333Z,77.70
2019-03-22T09:31:43.668Z,80.00
2019-03-22T09:34:13.036Z,80.30
2019-03-22T09:36:42.380Z,79.80
2019-03-22T09:39:11.793Z,80.60
2019-03-22T09:41:41.128Z,79.70
2019-03-22T09:44:10.427Z,78.10
2019-03-22T09:46:40.362Z,79.50
2019-03-22T09:49:09.807Z,74.90
2019-03-22T09:51:40.167Z,73.10
2019-03-22T09:54:09.497Z,73.50
2019-03-22T09:56:46.977Z,72.90
2019-03-22T09:59:09.944Z,72.50
2019-03-22T10:01:40.372Z,72.40
2019-03-22T10:04:09.704Z,71.00
2019-03-22T10:06:39.142Z,67.30
2019-03-22T10:09:08.431Z,70.70
2019-03-22T10:11:37.746Z,65.10
2019-03-22T10:14:07.075Z,62.30
2019-03-22T10:16:36.443Z,67.70
2019-03-22T10:19:05.754Z,64.90
2019-03-22T10:21:35.062Z,61.20
2019-03-22T10:24:04.475Z,61.10
2019-03-22T10:26:34.438Z,60.00
2019-03-22T10:29:06.760Z,61.50
2019-03-22T10:31:37.505Z,59.10
2019-03-22T10:34:05.871Z,59.20
2019-03-22T10:36:35.184Z,57.50
2019-03-22T10:39:07.325Z,55.50
2019-03-22T10:41:37.673Z,55.40
2019-03-22T10:44:07.040Z,57.70
2019-03-22T10:46:36.380Z,57.70
2019-03-22T10:49:05.681Z,58.20
2019-03-22T10:51:34.993Z,55.20
2019-03-22T10:54:04.416Z,56.20
2019-03-22T10:56:33.804Z,55.80
2019-03-22T10:59:03.107Z,56.10
2019-03-22T11:01:32.422Z,58.80
2019-03-22T11:04:02.496Z,57.40
2019-03-22T11:06:31.955Z,57.10
2019-03-22T11:09:01.255Z,58.00
2019-03-22T11:11:32.184Z,54.80
2019-03-22T11:14:01.497Z,55.70
2019-03-22T11:16:30.804Z,57.40
2019-03-22T11:19:03.057Z,57.00
2019-03-22T11:21:32.361Z,49.70
2019-03-22T11:24:01.673Z,50.10
2019-03-22T11:26:30.976Z,48.00
2019-03-22T11:29:00.293Z,46.30
2019-03-22T11:31:39.200Z,45.70
2019-03-22T11:34:00.612Z,45.00
2019-03-22T11:36:29.920Z,45.80
2019-03-22T11:38:59.841Z,45.00
2019-03-22T11:41:29.161Z,46.50
2019-03-22T11:43:58.455Z,46.60
2019-03-22T11:46:27.771Z,46.00
2019-03-22T11:48:57.081Z,45.80
2019-03-22T11:51:26.575Z,44.30
2019-03-22T11:53:55.875Z,45.30
2019-03-22T11:56:25.256Z,44.30
2019-03-22T11:58:54.560Z,43.60
2019-03-22T12:01:23.868Z,43.60
2019-03-22T12:03:53.185Z,43.70
2019-03-22T12:06:22.485Z,43.90
2019-03-22T12:08:51.807Z,42.80
2019-03-22T12:11:21.112Z,42.60
2019-03-22T12:13:50.417Z,41.00
2019-03-22T12:16:19.721Z,40.80
2019-03-22T12:18:50.427Z,41.90
2019-03-22T12:21:21.823Z,39.90
2019-03-22T12:23:51.130Z,38.90
2019-03-22T12:26:20.427Z,39.30
2019-03-22T12:28:49.736Z,40.00
2019-03-22T12:31:19.565Z,39.50
2019-03-22T12:33:49.145Z,39.80
2019-03-22T12:36:18.531Z,39.30
2019-03-22T12:38:47.840Z,39.10
2019-03-22T12:41:17.140Z,40.20
2019-03-22T12:43:46.439Z,39.70
2019-03-22T12:46:15.739Z,36.20
2019-03-22T12:48:45.037Z,38.10
2019-03-22T12:51:15.494Z,36.30
2019-03-22T12:53:44.797Z,37.80
2019-03-22T12:56:14.207Z,36.90
2019-03-22T12:58:43.505Z,37.30
2019-03-22T13:01:12.803Z,36.30
2019-03-22T13:03:42.108Z,36.70
2019-03-22T13:06:11.407Z,38.10
2019-03-22T13:08:41.236Z,36.70
2019-03-22T13:11:10.536Z,35.70
2019-03-22T13:13:39.831Z,36.70
2019-03-22T13:16:09.220Z,35.50
2019-03-22T13:18:38.519Z,37.10
2019-03-22T13:21:07.823Z,35.70
2019-03-22T13:23:37.532Z,34.60
2019-03-22T13:26:06.827Z,36.40
2019-03-22T13:28:36.123Z,38.00
2019-03-22T13:31:05.428Z,35.60
2019-03-22T13:33:35.531Z,35.80
2019-03-22T13:36:04.836Z,34.70
2019-03-22T13:38:34.179Z,35.00
2019-03-22T13:41:03.515Z,35.00
2019-03-22T13:43:32.812Z,34.80
2019-03-22T13:46:02.123Z,35.70
2019-03-22T13:48:31.431Z,36.80
2019-03-22T13:51:00.727Z,35.80
2019-03-22T13:53:30.144Z,36.20
2019-03-22T13:55:59.444Z,35.30
2019-03-22T13:58:28.743Z,35.70
2019-03-22T14:00:58.120Z,34.20
2019-03-22T14:03:27.424Z,32.40
2019-03-22T14:05:57.672Z,32.80
2019-03-22T14:08:27.114Z,31.90
2019-03-22T14:10:57.625Z,30.70
2019-03-22T14:13:26.928Z,30.60
2019-03-22T14:15:56.224Z,31.20
2019-03-22T14:18:25.548Z,30.10
2019-03-22T14:20:54.905Z,29.60
2019-03-22T14:23:24.208Z,28.90
2019-03-22T14:25:55.399Z,29.20
2019-03-22T14:28:24.703Z,27.40
2019-03-22T14:30:54.004Z,28.30
2019-03-22T14:33:23.301Z,28.10
2019-03-22T14:35:52.660Z,27.80
2019-03-22T14:38:21.959Z,28.00
2019-03-22T14:40:51.257Z,26.80
2019-03-22T14:43:20.556Z,26.30
2019-03-22T14:45:50.023Z,26.50
2019-03-22T14:48:19.344Z,26.30
2019-03-22T14:50:48.643Z,27.10
2019-03-22T14:53:18.045Z,27.30
2019-03-22T14:55:47.353Z,27.10
2019-03-22T14:58:16.647Z,26.70
2019-03-22T15:00:45.954Z,26.10
2019-03-22T15:03:24.679Z,26.20
2019-03-22T15:05:55.928Z,26.60
2019-03-22T15:08:26.143Z,25.60
2019-03-22T15:10:55.528Z,26.50
2019-03-22T15:13:26.486Z,26.70
2019-03-22T15:15:57.432Z,26.10
2019-03-22T15:18:45.820Z,26.00
2019-03-22T15:21:28.969Z,24.40
2019-03-22T15:24:08.981Z,25.40
2019-03-22T15:26:44.288Z,25.60
2019-03-22T15:29:28.439Z,26.00
2019-03-22T15:32:02.017Z,27.00
2019-03-22T15:34:32.976Z,26.80
2019-03-22T15:37:20.569Z,27.10
2019-03-22T15:40:00.849Z,27.70
2019-03-22T15:42:31.191Z,25.40
2019-03-22T15:45:00.605Z,26.50
2019-03-22T15:47:30.246Z,27.20
2019-03-22T15:49:59.551Z,27.00
2019-03-22T15:52:28.863Z,27.50
2019-03-22T15:54:58.245Z,26.60
2019-03-22T15:57:27.554Z,26.80
2019-03-22T15:59:56.851Z,25.40
2019-03-22T16:02:26.155Z,25.40
2019-03-22T16:04:56.040Z,25.10
2019-03-22T16:07:25.340Z,26.00
2019-03-22T16:09:54.640Z,25.90
2019-03-22T16:12:23.948Z,25.30
2019-03-22T16:14:53.239Z,26.00
2019-03-22T16:17:22.597Z,26.50
2019-03-22T16:19:51.896Z,27.40
2019-03-22T16:22:21.272Z,27.70
2019-03-22T16:24:50.575Z,28.80
2019-03-22T16:27:22.544Z,29.90
2019-03-22T16:29:51.839Z,29.70
2019-03-22T16:32:21.153Z,30.10
2019-03-22T16:34:50.557Z,30.50
2019-03-22T16:37:19.860Z,30.70
2019-03-22T16:39:49.378Z,31.80
2019-03-22T16:42:18.675Z,32.70
2019-03-22T16:44:47.992Z,33.70
2019-03-22T16:47:17.300Z,34.50
2019-03-22T16:49:46.603Z,35.80
2019-03-22T16:52:15.907Z,39.10
2019-03-22T16:54:45.212Z,42.00
2019-03-22T16:57:15.939Z,44.60
2019-03-22T16:59:45.299Z,47.50
2019-03-22T17:02:14.603Z,50.20
2019-03-22T17:04:43.915Z,51.70
2019-03-22T17:07:13.214Z,52.70
2019-03-22T17:09:42.528Z,53.00
2019-03-22T17:12:11.832Z,54.90
2019-03-22T17:14:41.149Z,54.20
2019-03-22T17:17:10.456Z,55.00
2019-03-22T17:19:39.759Z,55.60
2019-03-22T17:22:09.064Z,56.10
2019-03-22T17:24:38.418Z,56.40
2019-03-22T17:27:08.362Z,56.10
2019-03-22T17:29:38.177Z,57.30
2019-03-22T17:32:07.687Z,57.80
2019-03-22T17:34:37.283Z,59.60
2019-03-22T17:37:07.567Z,60.80
2019-03-22T17:39:36.888Z,62.10
2019-03-22T17:42:06.186Z,62.10
2019-03-22T17:44:35.567Z,64.00
2019-03-22T17:47:05.044Z,64.90
2019-03-22T17:49:34.356Z,66.80
2019-03-22T17:52:03.655Z,67.70
2019-03-22T17:54:33.934Z,69.20
2019-03-22T17:57:03.253Z,69.60
2019-03-22T17:59:32.555Z,70.80
2019-03-22T18:02:01.943Z,71.20
2019-03-22T18:04:31.300Z,71.80
2019-03-22T18:07:00.607Z,72.50
2019-03-22T18:09:29.928Z,73.00
2019-03-22T18:11:59.237Z,74.00
2019-03-22T18:14:28.534Z,75.30
2019-03-22T18:16:57.840Z,76.20
2019-03-22T18:19:27.250Z,77.50
2019-03-22T18:21:56.576Z,78.50
2019-03-22T18:24:25.880Z,79.60
2019-03-22T18:26:55.184Z,79.90
2019-03-22T18:29:24.479Z,80.70
2019-03-22T18:31:54.397Z,81.70
2019-03-22T18:34:33.698Z,82.50
2019-03-22T18:36:54.704Z,83.50
2019-03-22T18:39:24.065Z,84.80
2019-03-22T18:41:53.363Z,85.00
2019-03-22T18:44:22.669Z,84.90
2019-03-22T18:46:51.971Z,85.10
2019-03-22T18:49:21.278Z,85.10
2019-03-22T18:51:50.581Z,85.30
2019-03-22T18:54:20.861Z,85.80
2019-03-22T18:56:50.208Z,86.20
2019-03-22T18:59:19.512Z,86.60
2019-03-22T19:01:48.810Z,86.80
2019-03-22T19:04:18.116Z,86.90
2019-03-22T19:06:47.499Z,88.10
2019-03-22T19:09:16.823Z,87.50
2019-03-22T19:11:46.131Z,87.80
2019-03-22T19:14:15.432Z,88.00
2019-03-22T19:16:44.744Z,88.40
2019-03-22T19:19:14.124Z,89.10
2019-03-22T19:21:44.064Z,89.70
2019-03-22T19:24:13.364Z,89.90
2019-03-22T19:26:42.664Z,89.90
2019-03-22T19:29:12.531Z,90.10
2019-03-22T19:31:41.842Z,90.40
2019-03-22T19:34:11.423Z,90.50
2019-03-22T19:36:40.734Z,90.80
2019-03-22T19:39:11.124Z,91.20
2019-03-22T19:41:40.444Z,91.60
2019-03-22T19:44:09.744Z,92.40
2019-03-22T19:46:39.049Z,92.30
2019-03-22T19:49:08.359Z,92.70
2019-03-22T19:51:37.663Z,92.80
2019-03-22T19:54:07.476Z,92.50
2019-03-22T19:56:36.784Z,92.50
2019-03-22T19:59:06.096Z,92.40
2019-03-22T20:01:35.408Z,92.60
2019-03-22T20:04:04.890Z,92.50
2019-03-22T20:06:34.216Z,92.60
2019-03-22T20:09:06.833Z,92.70
2019-03-22T20:11:37.275Z,92.70
2019-03-22T20:14:06.750Z,92.70
2019-03-22T20:16:36.059Z,92.80
2019-03-22T20:19:05.359Z,92.70
2019-03-22T20:21:34.725Z,92.80
2019-03-22T20:24:04.115Z,93.00
2019-03-22T20:26:33.419Z,93.20
2019-03-22T20:29:02.850Z,93.40
2019-03-22T20:31:32.156Z,93.40
2019-03-22T20:34:01.468Z,93.50
2019-03-22T20:36:32.497Z,93.30
2019-03-22T20:39:01.800Z,93.20
2019-03-22T20:41:32.388Z,93.50
2019-03-22T20:44:01.696Z,93.80
2019-03-22T20:46:31.107Z,93.80
2019-03-22T20:49:00.583Z,94.00
2019-03-22T20:51:29.944Z,93.90
2019-03-22T20:53:59.664Z,93.90
2019-03-22T20:56:28.967Z,94.00
2019-03-22T20:58:58.281Z,94.10
2019-03-22T21:01:27.587Z,94.20
2019-03-22T21:03:57.860Z,94.10
2019-03-22T21:06:27.176Z,94.10
2019-03-22T21:08:56.495Z,94.10
2019-03-22T21:11:27.665Z,94.20
2019-03-22T21:13:56.965Z,94.20
2019-03-22T21:16:26.268Z,94.30
2019-03-22T21:18:55.572Z,94.50
2019-03-22T21:21:35.690Z,94.60
2019-03-22T21:23:55.888Z,94.70
2019-03-22T21:26:25.188Z,94.80
2019-03-22T21:28:54.497Z,94.90
2019-03-22T21:31:23.804Z,95.10
2019-03-22T21:33:53.132Z,95.40
2019-03-22T21:36:22.666Z,95.40
2019-03-22T21:38:54.000Z,95.40
2019-03-22T21:41:23.329Z,95.40
2019-03-22T21:43:52.624Z,95.40
2019-03-22T21:46:21.979Z,95.40
2019-03-22T21:48:51.313Z,95.50
2019-03-22T21:51:20.611Z,95.70
2019-03-22T21:53:49.915Z,95.80
2019-03-22T21:56:19.207Z,96.00
2019-03-22T21:58:48.519Z,96.00
2019-03-22T22:01:17.817Z,96.10
2019-03-22T22:03:47.133Z,96.20
2019-03-22T22:06:16.431Z,96.10
2019-03-22T22:08:45.736Z,96.10
2019-03-22T22:11:15.044Z,96.10
2019-03-22T22:13:44.344Z,96.30
2019-03-22T22:16:13.656Z,96.30
2019-03-22T22:18:42.951Z,96.40
2019-03-22T22:21:12.253Z,96.60
2019-03-22T22:23:42.712Z,97.00
2019-03-22T22:26:12.088Z,97.00
2019-03-22T22:28:41.392Z,97.10
2019-03-22T22:31:10.725Z,97.00
2019-03-22T22:33:40.106Z,97.70
2019-03-22T22:36:09.400Z,97.40
2019-03-22T22:38:38.723Z,97.40
2019-03-22T22:41:08.352Z,97.50
2019-03-22T22:43:37.752Z,97.70
2019-03-22T22:46:08.089Z,97.80
2019-03-22T22:48:37.387Z,97.90
2019-03-22T22:51:06.687Z,98.00
2019-03-22T22:53:35.983Z,98.10
2019-03-22T22:56:05.291Z,98.00
2019-03-22T22:58:34.592Z,98.20
2019-03-22T23:01:03.957Z,97.90
2019-03-22T23:03:33.260Z,97.90
2019-03-22T23:06:09.262Z,98.20
2019-03-22T23:08:33.560Z,98.10
2019-03-22T23:11:02.855Z,97.90
2019-03-22T23:13:32.162Z,97.90
2019-03-22T23:16:01.536Z,98.40
2019-03-22T23:18:30.835Z,98.40
2019-03-22T23:21:00.132Z,98.40
2019-03-22T23:23:29.430Z,98.20
2019-03-22T23:25:58.772Z,98.30
2019-03-22T23:28:28.192Z,98.20
2019-03-22T23:30:57.493Z,98.30
2019-03-22T23:33:26.790Z,98.50
2019-03-22T23:35:56.083Z,98.50
2019-03-22T23:38:26.019Z,98.30
2019-03-22T23:40:55.320Z,98.90
2019-03-22T23:43:25.855Z,98.90
2019-03-22T23:45:55.233Z,98.70
2019-03-22T23:48:24.672Z,98.50
2019-03-22T23:50:53.963Z,98.90
2019-03-22T23:53:23.260Z,99.40
2019-03-22T23:55:52.697Z,99.60
2019-03-22T23:58:21.992Z,99.80
